sensor_id;sensor_type;location;lat;lon;timestamp;P1;durP1;ratioP1;P2;durP2;ratioP2
69161;SDS011;56269;51.738;21.652;2023-05-10T00:02:17;10.68;;;3.67;;
69161;SDS011;56269;51.738;21.652;2023-05-10T00:04:43;12.88;;;4.57;;
69161;SDS011;56269;51.738;21.652;2023-05-10T00:07:09;12.77;;;4.50;;
69161;SDS011;56269;51.738;21.652;2023-05-10T00:09:36;9.35;;;4.20;;
69161;SDS011;56269;51.738;21.652;2023-05-10T00:12:02;10.50;;;4.35;;
69161;SDS011;56269;51.738;21.652;2023-05-10T00:14:29;12.60;;;4.50;;
69161;SDS011;56269;51.738;21.652;2023-05-10T00:16:55;9.05;;;4.10;;
69161;SDS011;56269;51.738;21.652;2023-05-10T00:19:21;11.37;;;4.40;;
69161;SDS011;56269;51.738;21.652;2023-05-10T00:21:47;10.77;;;4.45;;
69161;SDS011;56269;51.738;21.652;2023-05-10T00:24:14;10.48;;;4.45;;
69161;SDS011;56269;51.738;21.652;2023-05-10T00:26:40;9.32;;;4.03;;
69161;SDS011;56269;51.738;21.652;2023-05-10T00:29:07;9.88;;;3.97;;
69161;SDS011;56269;51.738;21.652;2023-05-10T00:31:33;10.03;;;4.13;;
69161;SDS011;56269;51.738;21.652;2023-05-10T00:34:00;11.48;;;4.45;;
69161;SDS011;56269;51.738;21.652;2023-05-10T00:36:26;13.00;;;4.40;;
69161;SDS011;56269;51.738;21.652;2023-05-10T00:38:53;10.32;;;4.20;;
69161;SDS011;56269;51.738;21.652;2023-05-10T00:41:19;15.07;;;4.50;;
69161;SDS011;56269;51.738;21.652;2023-05-10T00:43:46;11.15;;;4.40;;
69161;SDS011;56269;51.738;21.652;2023-05-10T00:46:13;11.30;;;3.88;;
69161;SDS011;56269;51.738;21.652;2023-05-10T00:48:42;11.02;;;4.47;;
69161;SDS011;56269;51.738;21.652;2023-05-10T00:51:09;12.82;;;4.50;;
69161;SDS011;56269;51.738;21.652;2023-05-10T00:53:36;11.37;;;4.40;;
69161;SDS011;56269;51.738;21.652;2023-05-10T00:56:04;13.30;;;4.70;;
69161;SDS011;56269;51.738;21.652;2023-05-10T00:58:31;12.68;;;4.82;;
69161;SDS011;56269;51.738;21.652;2023-05-10T01:00:57;12.30;;;3.80;;
69161;SDS011;56269;51.738;21.652;2023-05-10T01:03:24;12.60;;;4.37;;
69161;SDS011;56269;51.738;21.652;2023-05-10T01:05:51;9.30;;;3.80;;
69161;SDS011;56269;51.738;21.652;2023-05-10T01:08:17;11.68;;;4.25;;
69161;SDS011;56269;51.738;21.652;2023-05-10T01:10:43;10.15;;;4.03;;
69161;SDS011;56269;51.738;21.652;2023-05-10T01:13:11;10.52;;;4.10;;
69161;SDS011;56269;51.738;21.652;2023-05-10T01:15:38;11.50;;;4.20;;
69161;SDS011;56269;51.738;21.652;2023-05-10T01:18:05;11.80;;;4.50;;
69161;SDS011;56269;51.738;21.652;2023-05-10T01:20:35;12.95;;;4.28;;
69161;SDS011;56269;51.738;21.652;2023-05-10T01:31:06;10.90;;;4.57;;
69161;SDS011;56269;51.738;21.652;2023-05-10T01:36:32;10.20;;;4.13;;
69161;SDS011;56269;51.738;21.652;2023-05-10T01:39:15;13.60;;;3.90;;
69161;SDS011;56269;51.738;21.652;2023-05-10T01:41:48;10.32;;;4.03;;
69161;SDS011;56269;51.738;21.652;2023-05-10T01:44:23;10.88;;;3.83;;
69161;SDS011;56269;51.738;21.652;2023-05-10T01:47:00;11.32;;;4.63;;
69161;SDS011;56269;51.738;21.652;2023-05-10T01:49:33;10.77;;;4.00;;
69161;SDS011;56269;51.738;21.652;2023-05-10T01:52:04;9.53;;;4.10;;
69161;SDS011;56269;51.738;21.652;2023-05-10T01:54:34;11.20;;;4.22;;
69161;SDS011;56269;51.738;21.652;2023-05-10T01:57:05;11.50;;;4.22;;
69161;SDS011;56269;51.738;21.652;2023-05-10T01:59:35;10.43;;;4.20;;
69161;SDS011;56269;51.738;21.652;2023-05-10T02:02:07;9.93;;;4.22;;
69161;SDS011;56269;51.738;21.652;2023-05-10T02:04:38;9.70;;;3.90;;
69161;SDS011;56269;51.738;21.652;2023-05-10T02:07:05;10.15;;;3.90;;
69161;SDS011;56269;51.738;21.652;2023-05-10T02:09:33;11.32;;;4.47;;
69161;SDS011;56269;51.738;21.652;2023-05-10T02:12:01;8.20;;;3.47;;
69161;SDS011;56269;51.738;21.652;2023-05-10T02:14:30;10.57;;;4.28;;
69161;SDS011;56269;51.738;21.652;2023-05-10T02:16:59;11.70;;;3.93;;
69161;SDS011;56269;51.738;21.652;2023-05-10T02:19:28;9.38;;;3.65;;
69161;SDS011;56269;51.738;21.652;2023-05-10T02:21:55;11.13;;;4.13;;
69161;SDS011;56269;51.738;21.652;2023-05-10T02:24:22;9.48;;;4.05;;
69161;SDS011;56269;51.738;21.652;2023-05-10T02:26:51;11.98;;;4.13;;
69161;SDS011;56269;51.738;21.652;2023-05-10T02:29:22;12.07;;;3.90;;
69161;SDS011;56269;51.738;21.652;2023-05-10T02:31:54;12.55;;;3.63;;
69161;SDS011;56269;51.738;21.652;2023-05-10T02:34:21;10.82;;;3.88;;
69161;SDS011;56269;51.738;21.652;2023-05-10T02:36:48;13.07;;;3.83;;
69161;SDS011;56269;51.738;21.652;2023-05-10T02:39:16;10.40;;;3.65;;
69161;SDS011;56269;51.738;21.652;2023-05-10T02:41:44;10.20;;;3.93;;
69161;SDS011;56269;51.738;21.652;2023-05-10T02:44:12;11.65;;;4.53;;
69161;SDS011;56269;51.738;21.652;2023-05-10T02:46:41;15.75;;;4.10;;
69161;SDS011;56269;51.738;21.652;2023-05-10T02:49:07;12.60;;;4.25;;
69161;SDS011;56269;51.738;21.652;2023-05-10T02:51:35;9.50;;;3.85;;
69161;SDS011;56269;51.738;21.652;2023-05-10T02:54:07;8.00;;;3.00;;
69161;SDS011;56269;51.738;21.652;2023-05-10T02:56:40;9.75;;;3.70;;
69161;SDS011;56269;51.738;21.652;2023-05-10T02:59:08;9.80;;;4.00;;
69161;SDS011;56269;51.738;21.652;2023-05-10T03:01:35;13.27;;;4.18;;
69161;SDS011;56269;51.738;21.652;2023-05-10T03:04:02;9.13;;;4.00;;
69161;SDS011;56269;51.738;21.652;2023-05-10T03:06:28;8.60;;;3.77;;
69161;SDS011;56269;51.738;21.652;2023-05-10T03:08:54;12.10;;;3.95;;
69161;SDS011;56269;51.738;21.652;2023-05-10T03:17:11;11.10;;;3.80;;
69161;SDS011;56269;51.738;21.652;2023-05-10T03:19:47;12.40;;;4.30;;
69161;SDS011;56269;51.738;21.652;2023-05-10T03:22:23;10.50;;;4.15;;
69161;SDS011;56269;51.738;21.652;2023-05-10T03:24:55;9.82;;;3.60;;
69161;SDS011;56269;51.738;21.652;2023-05-10T03:27:23;10.40;;;4.10;;
69161;SDS011;56269;51.738;21.652;2023-05-10T03:29:52;11.00;;;4.05;;
69161;SDS011;56269;51.738;21.652;2023-05-10T03:32:20;10.83;;;4.37;;
69161;SDS011;56269;51.738;21.652;2023-05-10T03:34:46;11.52;;;4.10;;
69161;SDS011;56269;51.738;21.652;2023-05-10T03:37:12;10.90;;;4.47;;
69161;SDS011;56269;51.738;21.652;2023-05-10T03:39:39;13.18;;;4.28;;
69161;SDS011;56269;51.738;21.652;2023-05-10T03:42:05;13.00;;;4.30;;
69161;SDS011;56269;51.738;21.652;2023-05-10T03:44:31;10.33;;;3.90;;
69161;SDS011;56269;51.738;21.652;2023-05-10T03:46:58;10.98;;;4.00;;
69161;SDS011;56269;51.738;21.652;2023-05-10T03:49:25;10.13;;;3.97;;
69161;SDS011;56269;51.738;21.652;2023-05-10T03:51:51;11.73;;;4.30;;
69161;SDS011;56269;51.738;21.652;2023-05-10T03:54:17;9.88;;;4.07;;
69161;SDS011;56269;51.738;21.652;2023-05-10T03:56:43;10.93;;;4.07;;
69161;SDS011;56269;51.738;21.652;2023-05-10T03:59:11;10.35;;;4.22;;
69161;SDS011;56269;51.738;21.652;2023-05-10T04:01:37;9.52;;;4.13;;
69161;SDS011;56269;51.738;21.652;2023-05-10T04:04:03;10.63;;;4.07;;
69161;SDS011;56269;51.738;21.652;2023-05-10T04:06:29;9.73;;;4.27;;
69161;SDS011;56269;51.738;21.652;2023-05-10T04:08:56;8.82;;;4.10;;
69161;SDS011;56269;51.738;21.652;2023-05-10T04:11:25;11.95;;;4.28;;
69161;SDS011;56269;51.738;21.652;2023-05-10T04:13:51;10.45;;;4.25;;
69161;SDS011;56269;51.738;21.652;2023-05-10T04:16:17;12.32;;;4.15;;
69161;SDS011;56269;51.738;21.652;2023-05-10T04:18:44;12.17;;;4.20;;
69161;SDS011;56269;51.738;21.652;2023-05-10T04:21:13;12.00;;;4.40;;
69161;SDS011;56269;51.738;21.652;2023-05-10T04:23:39;10.02;;;3.75;;
69161;SDS011;56269;51.738;21.652;2023-05-10T04:26:05;8.93;;;3.25;;
69161;SDS011;56269;51.738;21.652;2023-05-10T04:28:32;9.80;;;3.50;;
69161;SDS011;56269;51.738;21.652;2023-05-10T04:31:04;10.43;;;4.00;;
69161;SDS011;56269;51.738;21.652;2023-05-10T04:33:32;9.48;;;4.18;;
69161;SDS011;56269;51.738;21.652;2023-05-10T04:35:58;11.32;;;4.18;;
69161;SDS011;56269;51.738;21.652;2023-05-10T04:38:25;14.10;;;4.18;;
69161;SDS011;56269;51.738;21.652;2023-05-10T04:40:51;10.68;;;4.25;;
69161;SDS011;56269;51.738;21.652;2023-05-10T04:43:17;9.00;;;3.90;;
69161;SDS011;56269;51.738;21.652;2023-05-10T04:45:43;9.73;;;3.47;;
69161;SDS011;56269;51.738;21.652;2023-05-10T04:48:10;8.77;;;4.20;;
69161;SDS011;56269;51.738;21.652;2023-05-10T04:50:36;9.88;;;3.95;;
69161;SDS011;56269;51.738;21.652;2023-05-10T04:53:03;11.55;;;4.00;;
69161;SDS011;56269;51.738;21.652;2023-05-10T04:55:28;10.80;;;3.90;;
69161;SDS011;56269;51.738;21.652;2023-05-10T04:57:55;11.70;;;4.65;;
69161;SDS011;56269;51.738;21.652;2023-05-10T05:00:22;10.15;;;4.50;;
69161;SDS011;56269;51.738;21.652;2023-05-10T05:02:49;11.68;;;4.85;;
69161;SDS011;56269;51.738;21.652;2023-05-10T05:05:15;10.83;;;4.00;;
69161;SDS011;56269;51.738;21.652;2023-05-10T05:07:41;11.15;;;4.00;;
69161;SDS011;56269;51.738;21.652;2023-05-10T05:10:07;9.05;;;3.40;;
69161;SDS011;56269;51.738;21.652;2023-05-10T05:12:34;6.93;;;2.85;;
69161;SDS011;56269;51.738;21.652;2023-05-10T05:15:01;10.07;;;3.40;;
69161;SDS011;56269;51.738;21.652;2023-05-10T05:17:29;9.10;;;4.10;;
69161;SDS011;56269;51.738;21.652;2023-05-10T05:19:55;10.15;;;3.75;;
69161;SDS011;56269;51.738;21.652;2023-05-10T05:22:22;8.23;;;3.72;;
69161;SDS011;56269;51.738;21.652;2023-05-10T05:24:56;9.25;;;3.88;;
69161;SDS011;56269;51.738;21.652;2023-05-10T05:27:25;8.23;;;3.47;;
69161;SDS011;56269;51.738;21.652;2023-05-10T05:29:53;9.43;;;3.90;;
69161;SDS011;56269;51.738;21.652;2023-05-10T05:32:20;11.18;;;3.83;;
69161;SDS011;56269;51.738;21.652;2023-05-10T05:34:46;9.15;;;3.70;;
69161;SDS011;56269;51.738;21.652;2023-05-10T05:37:14;9.18;;;3.72;;
69161;SDS011;56269;51.738;21.652;2023-05-10T05:39:40;7.53;;;2.97;;
69161;SDS011;56269;51.738;21.652;2023-05-10T05:42:09;8.63;;;3.47;;
69161;SDS011;56269;51.738;21.652;2023-05-10T05:44:35;8.57;;;3.28;;
69161;SDS011;56269;51.738;21.652;2023-05-10T05:47:02;8.65;;;3.13;;
69161;SDS011;56269;51.738;21.652;2023-05-10T05:49:28;9.75;;;3.28;;
69161;SDS011;56269;51.738;21.652;2023-05-10T05:51:58;8.63;;;3.20;;
69161;SDS011;56269;51.738;21.652;2023-05-10T05:54:25;9.50;;;3.30;;
69161;SDS011;56269;51.738;21.652;2023-05-10T05:56:56;9.02;;;4.20;;
69161;SDS011;56269;51.738;21.652;2023-05-10T05:59:23;12.38;;;2.67;;
69161;SDS011;56269;51.738;21.652;2023-05-10T06:01:49;10.52;;;3.58;;
69161;SDS011;56269;51.738;21.652;2023-05-10T06:04:16;7.47;;;3.33;;
69161;SDS011;56269;51.738;21.652;2023-05-10T06:06:42;6.97;;;3.20;;
69161;SDS011;56269;51.738;21.652;2023-05-10T06:09:09;9.02;;;2.85;;
69161;SDS011;56269;51.738;21.652;2023-05-10T06:11:35;6.78;;;3.08;;
69161;SDS011;56269;51.738;21.652;2023-05-10T06:14:02;7.65;;;3.20;;
69161;SDS011;56269;51.738;21.652;2023-05-10T06:16:30;7.65;;;3.10;;
69161;SDS011;56269;51.738;21.652;2023-05-10T06:18:57;9.87;;;3.20;;
69161;SDS011;56269;51.738;21.652;2023-05-10T06:21:23;8.00;;;3.58;;
69161;SDS011;56269;51.738;21.652;2023-05-10T06:23:49;8.27;;;3.30;;
69161;SDS011;56269;51.738;21.652;2023-05-10T06:26:15;6.28;;;2.33;;
69161;SDS011;56269;51.738;21.652;2023-05-10T06:28:41;7.00;;;2.67;;
69161;SDS011;56269;51.738;21.652;2023-05-10T06:31:08;8.60;;;3.30;;
69161;SDS011;56269;51.738;21.652;2023-05-10T06:33:34;8.07;;;2.88;;
69161;SDS011;56269;51.738;21.652;2023-05-10T06:36:01;9.10;;;3.30;;
69161;SDS011;56269;51.738;21.652;2023-05-10T06:38:27;7.82;;;3.10;;
69161;SDS011;56269;51.738;21.652;2023-05-10T06:40:53;6.80;;;3.00;;
69161;SDS011;56269;51.738;21.652;2023-05-10T06:43:19;6.90;;;2.97;;
69161;SDS011;56269;51.738;21.652;2023-05-10T06:45:47;7.88;;;3.13;;
69161;SDS011;56269;51.738;21.652;2023-05-10T06:48:13;6.22;;;2.47;;
69161;SDS011;56269;51.738;21.652;2023-05-10T06:50:40;5.88;;;2.35;;
69161;SDS011;56269;51.738;21.652;2023-05-10T06:53:06;7.78;;;2.80;;
69161;SDS011;56269;51.738;21.652;2023-05-10T06:55:32;6.00;;;2.57;;
69161;SDS011;56269;51.738;21.652;2023-05-10T06:57:58;8.18;;;3.20;;
69161;SDS011;56269;51.738;21.652;2023-05-10T07:00:25;7.53;;;2.65;;
69161;SDS011;56269;51.738;21.652;2023-05-10T07:02:51;6.78;;;2.45;;
69161;SDS011;56269;51.738;21.652;2023-05-10T07:05:18;7.35;;;2.97;;
69161;SDS011;56269;51.738;21.652;2023-05-10T07:07:44;5.87;;;2.10;;
69161;SDS011;56269;51.738;21.652;2023-05-10T07:10:10;6.97;;;2.10;;
69161;SDS011;56269;51.738;21.652;2023-05-10T07:12:36;5.70;;;2.55;;
69161;SDS011;56269;51.738;21.652;2023-05-10T07:15:04;7.35;;;2.55;;
69161;SDS011;56269;51.738;21.652;2023-05-10T07:17:30;6.65;;;2.50;;
69161;SDS011;56269;51.738;21.652;2023-05-10T07:19:57;6.33;;;2.13;;
69161;SDS011;56269;51.738;21.652;2023-05-10T07:22:23;5.60;;;2.30;;
69161;SDS011;56269;51.738;21.652;2023-05-10T07:24:50;5.90;;;2.30;;
69161;SDS011;56269;51.738;21.652;2023-05-10T07:27:16;6.03;;;2.38;;
69161;SDS011;56269;51.738;21.652;2023-05-10T07:29:42;6.25;;;2.30;;
69161;SDS011;56269;51.738;21.652;2023-05-10T07:32:08;4.50;;;1.93;;
69161;SDS011;56269;51.738;21.652;2023-05-10T07:34:35;5.50;;;2.00;;
69161;SDS011;56269;51.738;21.652;2023-05-10T07:37:01;4.65;;;1.95;;
69161;SDS011;56269;51.738;21.652;2023-05-10T07:39:27;5.70;;;2.08;;
69161;SDS011;56269;51.738;21.652;2023-05-10T07:41:54;6.07;;;2.10;;
69161;SDS011;56269;51.738;21.652;2023-05-10T07:44:21;10.07;;;2.40;;
69161;SDS011;56269;51.738;21.652;2023-05-10T07:46:47;6.05;;;2.38;;
69161;SDS011;56269;51.738;21.652;2023-05-10T07:49:14;8.25;;;2.00;;
69161;SDS011;56269;51.738;21.652;2023-05-10T07:51:40;8.10;;;2.10;;
69161;SDS011;56269;51.738;21.652;2023-05-10T07:54:08;5.70;;;2.10;;
69161;SDS011;56269;51.738;21.652;2023-05-10T07:56:34;5.53;;;2.10;;
69161;SDS011;56269;51.738;21.652;2023-05-10T07:59:01;6.13;;;2.22;;
69161;SDS011;56269;51.738;21.652;2023-05-10T08:01:30;4.63;;;1.80;;
69161;SDS011;56269;51.738;21.652;2023-05-10T08:03:58;7.15;;;2.17;;
69161;SDS011;56269;51.738;21.652;2023-05-10T08:06:24;4.57;;;1.85;;
69161;SDS011;56269;51.738;21.652;2023-05-10T08:08:53;5.60;;;2.57;;
69161;SDS011;56269;51.738;21.652;2023-05-10T08:11:20;6.72;;;1.95;;
69161;SDS011;56269;51.738;21.652;2023-05-10T08:13:47;7.30;;;2.00;;
69161;SDS011;56269;51.738;21.652;2023-05-10T08:16:14;5.43;;;2.17;;
69161;SDS011;56269;51.738;21.652;2023-05-10T08:18:41;5.85;;;2.10;;
69161;SDS011;56269;51.738;21.652;2023-05-10T08:21:07;6.23;;;1.97;;
69161;SDS011;56269;51.738;21.652;2023-05-10T08:23:33;5.25;;;1.88;;
69161;SDS011;56269;51.738;21.652;2023-05-10T08:25:59;5.53;;;2.45;;
69161;SDS011;56269;51.738;21.652;2023-05-10T08:28:26;5.03;;;1.85;;
69161;SDS011;56269;51.738;21.652;2023-05-10T08:30:52;6.72;;;1.90;;
69161;SDS011;56269;51.738;21.652;2023-05-10T08:33:18;5.03;;;2.07;;
69161;SDS011;56269;51.738;21.652;2023-05-10T08:35:45;5.40;;;1.95;;
69161;SDS011;56269;51.738;21.652;2023-05-10T08:38:11;5.70;;;2.08;;
69161;SDS011;56269;51.738;21.652;2023-05-10T08:40:39;5.43;;;2.17;;
69161;SDS011;56269;51.738;21.652;2023-05-10T08:43:09;7.13;;;2.10;;
69161;SDS011;56269;51.738;21.652;2023-05-10T08:45:38;5.43;;;2.13;;
69161;SDS011;56269;51.738;21.652;2023-05-10T08:48:07;6.95;;;2.30;;
69161;SDS011;56269;51.738;21.652;2023-05-10T08:50:37;6.85;;;2.25;;
69161;SDS011;56269;51.738;21.652;2023-05-10T08:53:10;5.60;;;2.40;;
69161;SDS011;56269;51.738;21.652;2023-05-10T08:55:38;5.40;;;1.90;;
69161;SDS011;56269;51.738;21.652;2023-05-10T08:58:06;5.53;;;2.17;;
69161;SDS011;56269;51.738;21.652;2023-05-10T09:00:32;5.03;;;1.80;;
69161;SDS011;56269;51.738;21.652;2023-05-10T09:02:59;5.25;;;2.00;;
69161;SDS011;56269;51.738;21.652;2023-05-10T09:05:26;7.90;;;2.17;;
69161;SDS011;56269;51.738;21.652;2023-05-10T09:07:53;6.90;;;2.10;;
69161;SDS011;56269;51.738;21.652;2023-05-10T09:10:20;5.40;;;2.37;;
69161;SDS011;56269;51.738;21.652;2023-05-10T09:12:47;5.72;;;2.10;;
69161;SDS011;56269;51.738;21.652;2023-05-10T09:15:15;5.85;;;2.22;;
69161;SDS011;56269;51.738;21.652;2023-05-10T09:17:42;5.40;;;2.35;;
69161;SDS011;56269;51.738;21.652;2023-05-10T09:20:09;5.90;;;2.22;;
69161;SDS011;56269;51.738;21.652;2023-05-10T09:22:36;6.53;;;2.27;;
69161;SDS011;56269;51.738;21.652;2023-05-10T09:25:03;6.72;;;2.30;;
69161;SDS011;56269;51.738;21.652;2023-05-10T09:27:31;8.68;;;1.90;;
69161;SDS011;56269;51.738;21.652;2023-05-10T09:29:57;6.03;;;2.10;;
69161;SDS011;56269;51.738;21.652;2023-05-10T09:32:56;6.88;;;1.80;;
69161;SDS011;56269;51.738;21.652;2023-05-10T09:35:16;6.90;;;3.33;;
69161;SDS011;56269;51.738;21.652;2023-05-10T09:37:44;5.22;;;1.85;;
69161;SDS011;56269;51.738;21.652;2023-05-10T09:40:14;6.57;;;2.25;;
69161;SDS011;56269;51.738;21.652;2023-05-10T09:42:59;5.63;;;2.10;;
69161;SDS011;56269;51.738;21.652;2023-05-10T09:45:28;7.20;;;2.22;;
69161;SDS011;56269;51.738;21.652;2023-05-10T09:47:56;6.07;;;2.33;;
69161;SDS011;56269;51.738;21.652;2023-05-10T09:50:23;7.60;;;2.40;;
69161;SDS011;56269;51.738;21.652;2023-05-10T09:52:57;6.47;;;2.53;;
69161;SDS011;56269;51.738;21.652;2023-05-10T09:55:45;6.85;;;2.25;;
69161;SDS011;56269;51.738;21.652;2023-05-10T09:58:15;6.25;;;2.50;;
69161;SDS011;56269;51.738;21.652;2023-05-10T10:00:42;5.57;;;1.90;;
69161;SDS011;56269;51.738;21.652;2023-05-10T10:03:20;5.45;;;2.05;;
69161;SDS011;56269;51.738;21.652;2023-05-10T10:05:47;5.55;;;1.73;;
69161;SDS011;56269;51.738;21.652;2023-05-10T10:08:14;6.43;;;2.47;;
69161;SDS011;56269;51.738;21.652;2023-05-10T10:10:42;5.10;;;1.90;;
69161;SDS011;56269;51.738;21.652;2023-05-10T10:13:12;8.80;;;2.40;;
69161;SDS011;56269;51.738;21.652;2023-05-10T10:15:39;6.00;;;2.15;;
69161;SDS011;56269;51.738;21.652;2023-05-10T10:18:05;6.13;;;1.95;;
69161;SDS011;56269;51.738;21.652;2023-05-10T10:20:33;6.72;;;2.20;;
69161;SDS011;56269;51.738;21.652;2023-05-10T10:22:59;7.43;;;2.40;;
69161;SDS011;56269;51.738;21.652;2023-05-10T10:25:25;6.10;;;1.80;;
69161;SDS011;56269;51.738;21.652;2023-05-10T10:35:54;5.82;;;2.40;;
69161;SDS011;56269;51.738;21.652;2023-05-10T10:38:21;4.67;;;1.57;;
69161;SDS011;56269;51.738;21.652;2023-05-10T10:40:48;6.32;;;2.47;;
69161;SDS011;56269;51.738;21.652;2023-05-10T10:43:27;7.03;;;2.22;;
69161;SDS011;56269;51.738;21.652;2023-05-10T10:46:27;6.45;;;2.20;;
69161;SDS011;56269;51.738;21.652;2023-05-10T10:48:48;5.47;;;2.30;;
69161;SDS011;56269;51.738;21.652;2023-05-10T10:51:17;5.20;;;2.07;;
69161;SDS011;56269;51.738;21.652;2023-05-10T10:53:45;6.50;;;2.67;;
69161;SDS011;56269;51.738;21.652;2023-05-10T10:56:14;5.65;;;2.17;;
69161;SDS011;56269;51.738;21.652;2023-05-10T10:58:42;5.68;;;1.80;;
69161;SDS011;56269;51.738;21.652;2023-05-10T11:01:19;7.70;;;2.15;;
69161;SDS011;56269;51.738;21.652;2023-05-10T11:06:34;5.85;;;2.10;;
69161;SDS011;56269;51.738;21.652;2023-05-10T11:09:05;6.13;;;2.30;;
69161;SDS011;56269;51.738;21.652;2023-05-10T11:11:34;7.28;;;1.88;;
69161;SDS011;56269;51.738;21.652;2023-05-10T11:14:04;5.43;;;2.15;;
69161;SDS011;56269;51.738;21.652;2023-05-10T11:16:41;5.77;;;1.93;;
69161;SDS011;56269;51.738;21.652;2023-05-10T11:19:12;5.95;;;2.53;;
69161;SDS011;56269;51.738;21.652;2023-05-10T11:21:47;5.88;;;2.92;;
69161;SDS011;56269;51.738;21.652;2023-05-10T11:24:17;4.80;;;1.90;;
69161;SDS011;56269;51.738;21.652;2023-05-10T11:26:45;6.15;;;2.25;;
69161;SDS011;56269;51.738;21.652;2023-05-10T11:29:12;6.17;;;2.40;;
69161;SDS011;56269;51.738;21.652;2023-05-10T11:31:45;7.50;;;2.20;;
69161;SDS011;56269;51.738;21.652;2023-05-10T11:34:23;5.45;;;2.42;;
69161;SDS011;56269;51.738;21.652;2023-05-10T11:36:50;6.57;;;2.10;;
69161;SDS011;56269;51.738;21.652;2023-05-10T11:39:20;5.53;;;2.10;;
69161;SDS011;56269;51.738;21.652;2023-05-10T11:41:48;5.73;;;2.00;;
69161;SDS011;56269;51.738;21.652;2023-05-10T11:44:15;5.47;;;1.95;;
69161;SDS011;56269;51.738;21.652;2023-05-10T11:46:41;7.57;;;2.75;;
69161;SDS011;56269;51.738;21.652;2023-05-10T11:49:07;4.95;;;1.65;;
69161;SDS011;56269;51.738;21.652;2023-05-10T11:51:34;5.15;;;2.22;;
69161;SDS011;56269;51.738;21.652;2023-05-10T11:54:05;6.40;;;2.03;;
69161;SDS011;56269;51.738;21.652;2023-05-10T11:56:33;7.40;;;2.40;;
69161;SDS011;56269;51.738;21.652;2023-05-10T11:59:00;5.60;;;2.30;;
69161;SDS011;56269;51.738;21.652;2023-05-10T12:01:28;5.70;;;2.05;;
69161;SDS011;56269;51.738;21.652;2023-05-10T12:03:55;6.93;;;2.60;;
69161;SDS011;56269;51.738;21.652;2023-05-10T12:06:28;9.90;;;2.80;;
69161;SDS011;56269;51.738;21.652;2023-05-10T12:08:56;6.22;;;2.45;;
69161;SDS011;56269;51.738;21.652;2023-05-10T12:11:27;5.50;;;2.20;;
69161;SDS011;56269;51.738;21.652;2023-05-10T12:13:54;6.85;;;2.50;;
69161;SDS011;56269;51.738;21.652;2023-05-10T12:16:22;6.20;;;2.28;;
69161;SDS011;56269;51.738;21.652;2023-05-10T12:18:53;4.37;;;1.80;;
69161;SDS011;56269;51.738;21.652;2023-05-10T12:21:21;5.78;;;2.25;;
69161;SDS011;56269;51.738;21.652;2023-05-10T12:23:59;6.88;;;2.13;;
69161;SDS011;56269;51.738;21.652;2023-05-10T12:26:28;7.35;;;2.60;;
69161;SDS011;56269;51.738;21.652;2023-05-10T12:28:55;6.97;;;2.30;;
69161;SDS011;56269;51.738;21.652;2023-05-10T12:31:53;4.60;;;1.90;;
69161;SDS011;56269;51.738;21.652;2023-05-10T12:34:38;6.60;;;1.90;;
69161;SDS011;56269;51.738;21.652;2023-05-10T12:37:04;8.00;;;2.40;;
69161;SDS011;56269;51.738;21.652;2023-05-10T12:42:06;7.65;;;2.42;;
69161;SDS011;56269;51.738;21.652;2023-05-10T12:44:32;6.10;;;2.20;;
69161;SDS011;56269;51.738;21.652;2023-05-10T12:46:59;4.95;;;2.10;;
69161;SDS011;56269;51.738;21.652;2023-05-10T12:49:25;4.85;;;1.67;;
69161;SDS011;56269;51.738;21.652;2023-05-10T12:51:51;5.45;;;1.95;;
69161;SDS011;56269;51.738;21.652;2023-05-10T12:54:17;6.40;;;2.45;;
69161;SDS011;56269;51.738;21.652;2023-05-10T12:56:44;6.97;;;2.57;;
69161;SDS011;56269;51.738;21.652;2023-05-10T12:59:10;7.28;;;2.25;;
69161;SDS011;56269;51.738;21.652;2023-05-10T13:01:36;5.43;;;1.98;;
69161;SDS011;56269;51.738;21.652;2023-05-10T13:04:02;5.70;;;2.45;;
69161;SDS011;56269;51.738;21.652;2023-05-10T13:06:28;5.57;;;2.10;;
69161;SDS011;56269;51.738;21.652;2023-05-10T13:08:55;5.90;;;2.23;;
69161;SDS011;56269;51.738;21.652;2023-05-10T13:11:21;10.30;;;2.28;;
69161;SDS011;56269;51.738;21.652;2023-05-10T13:13:47;5.50;;;2.28;;
69161;SDS011;56269;51.738;21.652;2023-05-10T13:16:13;6.28;;;2.05;;
69161;SDS011;56269;51.738;21.652;2023-05-10T13:18:40;5.60;;;2.13;;
69161;SDS011;56269;51.738;21.652;2023-05-10T13:21:06;5.63;;;2.00;;
69161;SDS011;56269;51.738;21.652;2023-05-10T13:23:33;5.18;;;1.83;;
69161;SDS011;56269;51.738;21.652;2023-05-10T13:26:00;4.53;;;1.90;;
69161;SDS011;56269;51.738;21.652;2023-05-10T13:28:26;6.57;;;2.10;;
69161;SDS011;56269;51.738;21.652;2023-05-10T13:30:53;6.57;;;2.33;;
69161;SDS011;56269;51.738;21.652;2023-05-10T13:33:20;6.77;;;2.23;;
69161;SDS011;56269;51.738;21.652;2023-05-10T13:35:46;5.70;;;2.10;;
69161;SDS011;56269;51.738;21.652;2023-05-10T13:38:13;6.97;;;2.40;;
69161;SDS011;56269;51.738;21.652;2023-05-10T13:40:40;6.13;;;2.33;;
69161;SDS011;56269;51.738;21.652;2023-05-10T13:43:06;7.10;;;2.50;;
69161;SDS011;56269;51.738;21.652;2023-05-10T13:45:32;5.07;;;2.00;;
69161;SDS011;56269;51.738;21.652;2023-05-10T13:47:59;6.13;;;2.28;;
69161;SDS011;56269;51.738;21.652;2023-05-10T13:50:25;6.15;;;1.88;;
69161;SDS011;56269;51.738;21.652;2023-05-10T13:52:52;4.97;;;2.05;;
69161;SDS011;56269;51.738;21.652;2023-05-10T13:55:18;6.95;;;2.33;;
69161;SDS011;56269;51.738;21.652;2023-05-10T13:57:44;5.27;;;2.00;;
69161;SDS011;56269;51.738;21.652;2023-05-10T14:00:11;7.47;;;2.13;;
69161;SDS011;56269;51.738;21.652;2023-05-10T14:02:37;3.90;;;1.55;;
69161;SDS011;56269;51.738;21.652;2023-05-10T14:05:04;8.88;;;2.50;;
69161;SDS011;56269;51.738;21.652;2023-05-10T14:07:30;5.07;;;1.80;;
69161;SDS011;56269;51.738;21.652;2023-05-10T14:09:57;5.67;;;1.60;;
69161;SDS011;56269;51.738;21.652;2023-05-10T14:12:23;8.45;;;1.80;;
69161;SDS011;56269;51.738;21.652;2023-05-10T14:14:49;5.82;;;1.80;;
69161;SDS011;56269;51.738;21.652;2023-05-10T14:17:15;7.72;;;2.00;;
69161;SDS011;56269;51.738;21.652;2023-05-10T14:19:41;6.35;;;2.15;;
69161;SDS011;56269;51.738;21.652;2023-05-10T14:22:07;4.30;;;1.70;;
69161;SDS011;56269;51.738;21.652;2023-05-10T14:24:34;6.70;;;2.22;;
69161;SDS011;56269;51.738;21.652;2023-05-10T14:27:00;5.43;;;2.20;;
69161;SDS011;56269;51.738;21.652;2023-05-10T14:29:27;5.47;;;1.73;;
69161;SDS011;56269;51.738;21.652;2023-05-10T14:31:53;4.50;;;1.80;;
69161;SDS011;56269;51.738;21.652;2023-05-10T14:34:20;4.97;;;2.00;;
69161;SDS011;56269;51.738;21.652;2023-05-10T14:36:46;4.72;;;2.00;;
69161;SDS011;56269;51.738;21.652;2023-05-10T14:39:12;4.65;;;1.95;;
69161;SDS011;56269;51.738;21.652;2023-05-10T14:41:39;7.70;;;2.00;;
69161;SDS011;56269;51.738;21.652;2023-05-10T14:44:08;5.53;;;2.10;;
69161;SDS011;56269;51.738;21.652;2023-05-10T14:46:35;4.90;;;1.67;;
69161;SDS011;56269;51.738;21.652;2023-05-10T14:49:01;6.18;;;2.17;;
69161;SDS011;56269;51.738;21.652;2023-05-10T14:51:27;6.25;;;2.08;;
69161;SDS011;56269;51.738;21.652;2023-05-10T14:53:54;5.80;;;1.88;;
69161;SDS011;56269;51.738;21.652;2023-05-10T14:56:20;6.03;;;1.80;;
69161;SDS011;56269;51.738;21.652;2023-05-10T14:58:47;5.60;;;1.90;;
69161;SDS011;56269;51.738;21.652;2023-05-10T15:01:13;6.97;;;2.13;;
69161;SDS011;56269;51.738;21.652;2023-05-10T15:03:39;5.95;;;2.25;;
69161;SDS011;56269;51.738;21.652;2023-05-10T15:06:05;5.75;;;2.28;;